sensor_id;sensor_type;location;lat;lon;timestamp;pressure;altitude;pressure_sealevel;temperature;humidity
77574;BME280;66710;48.868;9.080;2023-05-10T00:00:57;97414.16;;;12.01;95.48
77574;BME280;66710;48.868;9.080;2023-05-10T00:03:22;97409.56;;;11.96;95.98
77574;BME280;66710;48.868;9.080;2023-05-10T00:05:47;97407.13;;;11.94;94.74
77574;BME280;66710;48.868;9.080;2023-05-10T00:08:13;97404.44;;;11.89;95.07
77574;BME280;66710;48.868;9.080;2023-05-10T00:10:38;97408.06;;;11.85;95.87
77574;BME280;66710;48.868;9.080;2023-05-10T00:13:03;97410.59;;;11.81;95.08
77574;BME280;66710;48.868;9.080;2023-05-10T00:15:29;97408.16;;;11.80;94.92
77574;BME280;66710;48.868;9.080;2023-05-10T00:17:56;97405.72;;;11.78;95.77
77574;BME280;66710;48.868;9.080;2023-05-10T00:20:21;97399.00;;;11.70;96.21
77574;BME280;66710;48.868;9.080;2023-05-10T00:22:47;97399.00;;;11.70;96.16
77574;BME280;66710;48.868;9.080;2023-05-10T00:25:12;97406.06;;;11.71;95.67
77574;BME280;66710;48.868;9.080;2023-05-10T00:27:37;97405.34;;;11.66;95.74
77574;BME280;66710;48.868;9.080;2023-05-10T00:30:03;97407.84;;;11.62;96.10
77574;BME280;66710;48.868;9.080;2023-05-10T00:32:28;97399.38;;;11.64;95.49
77574;BME280;66710;48.868;9.080;2023-05-10T00:34:54;97393.97;;;11.58;95.53
77574;BME280;66710;48.868;9.080;2023-05-10T00:37:20;97395.91;;;11.58;96.62
77574;BME280;66710;48.868;9.080;2023-05-10T00:39:45;97393.53;;;11.51;96.64
77574;BME280;66710;48.868;9.080;2023-05-10T00:42:10;97393.19;;;11.58;96.52
77574;BME280;66710;48.868;9.080;2023-05-10T00:44:36;97403.34;;;11.52;96.84
77574;BME280;66710;48.868;9.080;2023-05-10T00:47:02;97408.81;;;11.52;96.19
77574;BME280;66710;48.868;9.080;2023-05-10T00:49:28;97414.56;;;11.51;96.52
77574;BME280;66710;48.868;9.080;2023-05-10T00:51:54;97416.78;;;11.49;96.90
77574;BME280;66710;48.868;9.080;2023-05-10T00:54:19;97418.38;;;11.50;96.77
77574;BME280;66710;48.868;9.080;2023-05-10T00:56:45;97422.53;;;11.47;97.06
77574;BME280;66710;48.868;9.080;2023-05-10T00:59:15;97435.03;;;11.48;96.30
77574;BME280;66710;48.868;9.080;2023-05-10T01:01:42;97438.28;;;11.50;96.09
77574;BME280;66710;48.868;9.080;2023-05-10T01:04:08;97428.50;;;11.49;96.16
77574;BME280;66710;48.868;9.080;2023-05-10T01:06:35;97439.69;;;11.48;95.73
77574;BME280;66710;48.868;9.080;2023-05-10T01:09:00;97430.31;;;11.54;95.54
77574;BME280;66710;48.868;9.080;2023-05-10T01:11:26;97429.81;;;11.52;95.81
77574;BME280;66710;48.868;9.080;2023-05-10T01:13:55;97428.78;;;11.48;95.94
77574;BME280;66710;48.868;9.080;2023-05-10T01:16:22;97439.41;;;11.49;95.07
77574;BME280;66710;48.868;9.080;2023-05-10T01:18:48;97430.63;;;11.52;95.02
77574;BME280;66710;48.868;9.080;2023-05-10T01:36:45;97441.84;;;11.51;94.97
77574;BME280;66710;48.868;9.080;2023-05-10T01:39:25;97446.78;;;11.49;95.15
77574;BME280;66710;48.868;9.080;2023-05-10T01:42:04;97437.53;;;11.45;95.58
77574;BME280;66710;48.868;9.080;2023-05-10T01:44:40;97442.19;;;11.44;95.87
77574;BME280;66710;48.868;9.080;2023-05-10T01:47:21;97438.59;;;11.49;95.24
77574;BME280;66710;48.868;9.080;2023-05-10T01:49:50;97435.25;;;11.52;94.62
77574;BME280;66710;48.868;9.080;2023-05-10T01:52:19;97449.50;;;11.49;95.86
77574;BME280;66710;48.868;9.080;2023-05-10T01:54:55;97446.84;;;11.44;95.77
77574;BME280;66710;48.868;9.080;2023-05-10T01:57:26;97448.50;;;11.39;96.11
77574;BME280;66710;48.868;9.080;2023-05-10T01:59:53;97452.88;;;11.41;96.22
77574;BME280;66710;48.868;9.080;2023-05-10T02:02:20;97458.03;;;11.42;95.53
77574;BME280;66710;48.868;9.080;2023-05-10T02:04:47;97459.41;;;11.39;95.76
77574;BME280;66710;48.868;9.080;2023-05-10T02:07:14;97457.81;;;11.38;95.41
77574;BME280;66710;48.868;9.080;2023-05-10T02:09:43;97459.94;;;11.42;95.55
77574;BME280;66710;48.868;9.080;2023-05-10T02:12:09;97470.03;;;11.41;95.30
77574;BME280;66710;48.868;9.080;2023-05-10T02:14:36;97468.94;;;11.42;94.57
77574;BME280;66710;48.868;9.080;2023-05-10T02:17:04;97467.94;;;11.33;95.93
77574;BME280;66710;48.868;9.080;2023-05-10T02:19:31;97456.47;;;11.36;95.48
77574;BME280;66710;48.868;9.080;2023-05-10T02:21:59;97459.69;;;11.38;95.20
77574;BME280;66710;48.868;9.080;2023-05-10T02:24:25;97460.03;;;11.36;94.96
77574;BME280;66710;48.868;9.080;2023-05-10T02:26:53;97463.03;;;11.35;94.80
77574;BME280;66710;48.868;9.080;2023-05-10T02:29:22;97470.56;;;11.43;94.40
77574;BME280;66710;48.868;9.080;2023-05-10T02:31:50;97467.81;;;11.43;94.26
77574;BME280;66710;48.868;9.080;2023-05-10T02:34:16;97482.59;;;11.42;94.24
77574;BME280;66710;48.868;9.080;2023-05-10T02:36:42;97489.66;;;11.43;94.02
77574;BME280;66710;48.868;9.080;2023-05-10T02:39:08;97492.38;;;11.43;94.83
77574;BME280;66710;48.868;9.080;2023-05-10T02:41:37;97483.63;;;11.46;93.89
77574;BME280;66710;48.868;9.080;2023-05-10T02:44:06;97491.50;;;11.48;94.41
77574;BME280;66710;48.868;9.080;2023-05-10T02:46:33;97490.94;;;11.51;93.61
77574;BME280;66710;48.868;9.080;2023-05-10T02:48:59;97486.88;;;11.48;94.01
77574;BME280;66710;48.868;9.080;2023-05-10T02:51:29;97486.56;;;11.50;93.75
77574;BME280;66710;48.868;9.080;2023-05-10T02:53:57;97483.09;;;11.44;94.34
77574;BME280;66710;48.868;9.080;2023-05-10T02:56:33;97486.06;;;11.48;94.34
77574;BME280;66710;48.868;9.080;2023-05-10T02:58:59;97487.97;;;11.47;94.48
77574;BME280;66710;48.868;9.080;2023-05-10T03:01:24;97487.09;;;11.52;93.35
77574;BME280;66710;48.868;9.080;2023-05-10T03:03:50;97487.69;;;11.49;93.49
77574;BME280;66710;48.868;9.080;2023-05-10T03:06:15;97492.03;;;11.50;95.04
77574;BME280;66710;48.868;9.080;2023-05-10T03:08:42;97491.22;;;11.49;94.04
77574;BME280;66710;48.868;9.080;2023-05-10T03:14:07;97498.34;;;11.45;94.30
77574;BME280;66710;48.868;9.080;2023-05-10T03:17:04;97492.88;;;11.45;94.28
77574;BME280;66710;48.868;9.080;2023-05-10T03:22:04;97503.81;;;11.45;95.20
77574;BME280;66710;48.868;9.080;2023-05-10T03:24:34;97499.19;;;11.46;94.50
77574;BME280;66710;48.868;9.080;2023-05-10T03:27:01;97507.94;;;11.43;94.67
77574;BME280;66710;48.868;9.080;2023-05-10T03:29:29;97504.41;;;11.42;94.81
77574;BME280;66710;48.868;9.080;2023-05-10T03:31:57;97502.19;;;11.44;94.86
77574;BME280;66710;48.868;9.080;2023-05-10T03:34:24;97495.34;;;11.47;94.93
77574;BME280;66710;48.868;9.080;2023-05-10T03:36:50;97500.78;;;11.47;94.48
77574;BME280;66710;48.868;9.080;2023-05-10T03:39:15;97511.06;;;11.55;93.28
77574;BME280;66710;48.868;9.080;2023-05-10T03:41:40;97504.81;;;11.54;93.80
77574;BME280;66710;48.868;9.080;2023-05-10T03:44:06;97502.31;;;11.58;93.08
77574;BME280;66710;48.868;9.080;2023-05-10T03:46:31;97514.81;;;11.59;92.84
77574;BME280;66710;48.868;9.080;2023-05-10T03:48:57;97511.63;;;11.52;93.46
77574;BME280;66710;48.868;9.080;2023-05-10T03:51:22;97508.09;;;11.51;93.53
77574;BME280;66710;48.868;9.080;2023-05-10T03:53:48;97514.38;;;11.52;93.74
77574;BME280;66710;48.868;9.080;2023-05-10T03:56:13;97514.38;;;11.52;93.51
77574;BME280;66710;48.868;9.080;2023-05-10T03:58:39;97515.53;;;11.46;94.23
77574;BME280;66710;48.868;9.080;2023-05-10T04:01:04;97521.50;;;11.48;94.02
77574;BME280;66710;48.868;9.080;2023-05-10T04:03:29;97519.88;;;11.47;94.57
77574;BME280;66710;48.868;9.080;2023-05-10T04:05:59;97520.09;;;11.50;94.23
77574;BME280;66710;48.868;9.080;2023-05-10T04:08:25;97517.38;;;11.50;93.64
77574;BME280;66710;48.868;9.080;2023-05-10T04:10:51;97516.06;;;11.48;93.78
77574;BME280;66710;48.868;9.080;2023-05-10T04:13:16;97513.84;;;11.50;94.21
77574;BME280;66710;48.868;9.080;2023-05-10T04:15:42;97516.88;;;11.48;94.42
77574;BME280;66710;48.868;9.080;2023-05-10T04:18:08;97523.16;;;11.49;93.99
77574;BME280;66710;48.868;9.080;2023-05-10T04:20:33;97523.72;;;11.46;94.26
77574;BME280;66710;48.868;9.080;2023-05-10T04:22:59;97521.50;;;11.48;93.54
77574;BME280;66710;48.868;9.080;2023-05-10T04:25:24;97528.06;;;11.47;94.35
77574;BME280;66710;48.868;9.080;2023-05-10T04:27:50;97532.47;;;11.43;94.01
77574;BME280;66710;48.868;9.080;2023-05-10T04:30:16;97531.84;;;11.51;92.52
77574;BME280;66710;48.868;9.080;2023-05-10T04:32:42;97530.16;;;11.55;92.74
77574;BME280;66710;48.868;9.080;2023-05-10T04:35:07;97527.94;;;11.57;92.48
77574;BME280;66710;48.868;9.080;2023-05-10T04:37:34;97533.13;;;11.58;92.33
77574;BME280;66710;48.868;9.080;2023-05-10T04:39:59;97532.31;;;11.58;92.18
77574;BME280;66710;48.868;9.080;2023-05-10T04:42:25;97539.38;;;11.59;91.97
77574;BME280;66710;48.868;9.080;2023-05-10T04:44:50;97534.44;;;11.61;91.75
77574;BME280;66710;48.868;9.080;2023-05-10T04:47:17;97541.81;;;11.61;92.72
77574;BME280;66710;48.868;9.080;2023-05-10T04:49:42;97541.53;;;11.62;92.86
77574;BME280;66710;48.868;9.080;2023-05-10T04:52:07;97542.56;;;11.66;92.34
77574;BME280;66710;48.868;9.080;2023-05-10T04:54:33;97552.16;;;11.64;92.77
77574;BME280;66710;48.868;9.080;2023-05-10T04:56:58;97554.59;;;11.65;92.58
77574;BME280;66710;48.868;9.080;2023-05-10T04:59:23;97545.06;;;11.63;92.64
77574;BME280;66710;48.868;9.080;2023-05-10T05:01:49;97546.66;;;11.69;92.89
77574;BME280;66710;48.868;9.080;2023-05-10T05:04:14;97553.44;;;11.71;92.80
77574;BME280;66710;48.868;9.080;2023-05-10T05:06:39;97549.59;;;11.72;92.40
77574;BME280;66710;48.868;9.080;2023-05-10T05:09:05;97551.47;;;11.77;91.49
77574;BME280;66710;48.868;9.080;2023-05-10T05:11:30;97556.56;;;11.84;92.00
77574;BME280;66710;48.868;9.080;2023-05-10T05:13:55;97548.88;;;11.86;92.07
77574;BME280;66710;48.868;9.080;2023-05-10T05:16:21;97558.38;;;11.93;91.67
77574;BME280;66710;48.868;9.080;2023-05-10T05:18:46;97558.91;;;11.95;90.86
77574;BME280;66710;48.868;9.080;2023-05-10T05:21:19;97567.09;;;11.95;90.94
77574;BME280;66710;48.868;9.080;2023-05-10T05:23:45;97565.03;;;12.06;91.38
77574;BME280;66710;48.868;9.080;2023-05-10T05:26:10;97567.78;;;12.06;91.20
77574;BME280;66710;48.868;9.080;2023-05-10T05:28:36;97566.16;;;12.05;91.63
77574;BME280;66710;48.868;9.080;2023-05-10T05:31:03;97570.50;;;12.06;91.51
77574;BME280;66710;48.868;9.080;2023-05-10T05:33:29;97569.34;;;12.12;89.65
77574;BME280;66710;48.868;9.080;2023-05-10T05:35:54;97570.94;;;12.13;90.43
77574;BME280;66710;48.868;9.080;2023-05-10T05:38:20;97572.94;;;12.08;91.52
77574;BME280;66710;48.868;9.080;2023-05-10T05:40:45;97573.41;;;12.15;91.19
77574;BME280;66710;48.868;9.080;2023-05-10T05:43:11;97573.69;;;12.13;91.01
77574;BME280;66710;48.868;9.080;2023-05-10T05:45:36;97569.25;;;12.18;90.47
77574;BME280;66710;48.868;9.080;2023-05-10T05:48:01;97574.13;;;12.21;89.84
77574;BME280;66710;48.868;9.080;2023-05-10T05:50:27;97572.06;;;12.31;89.81
77574;BME280;66710;48.868;9.080;2023-05-10T05:52:52;97574.56;;;12.28;89.55
77574;BME280;66710;48.868;9.080;2023-05-10T05:55:17;97578.94;;;12.29;89.50
77574;BME280;66710;48.868;9.080;2023-05-10T05:57:43;97584.06;;;12.36;89.12
77574;BME280;66710;48.868;9.080;2023-05-10T06:00:08;97579.47;;;12.31;90.17
77574;BME280;66710;48.868;9.080;2023-05-10T06:02:34;97582.72;;;12.33;88.89
77574;BME280;66710;48.868;9.080;2023-05-10T06:05:00;97593.19;;;12.45;88.96
77574;BME280;66710;48.868;9.080;2023-05-10T06:07:25;97583.38;;;12.44;88.32
77574;BME280;66710;48.868;9.080;2023-05-10T06:09:50;97587.00;;;12.39;88.14
77574;BME280;66710;48.868;9.080;2023-05-10T06:12:16;97584.22;;;12.44;89.23
77574;BME280;66710;48.868;9.080;2023-05-10T06:14:41;97587.44;;;12.46;87.89
77574;BME280;66710;48.868;9.080;2023-05-10T06:17:07;97588.69;;;12.54;88.41
77574;BME280;66710;48.868;9.080;2023-05-10T06:19:32;97593.28;;;12.59;89.45
77574;BME280;66710;48.868;9.080;2023-05-10T06:21:57;97598.03;;;12.53;88.60
77574;BME280;66710;48.868;9.080;2023-05-10T06:24:23;97604.34;;;12.48;87.82
77574;BME280;66710;48.868;9.080;2023-05-10T06:26:48;97601.78;;;12.57;87.77
77574;BME280;66710;48.868;9.080;2023-05-10T06:29:15;97602.50;;;12.63;87.09
77574;BME280;66710;48.868;9.080;2023-05-10T06:31:40;97605.38;;;12.71;87.88
77574;BME280;66710;48.868;9.080;2023-05-10T06:34:06;97609.47;;;12.74;86.40
77574;BME280;66710;48.868;9.080;2023-05-10T06:36:33;97601.63;;;12.67;86.81
77574;BME280;66710;48.868;9.080;2023-05-10T06:38:58;97600.44;;;12.74;87.03
77574;BME280;66710;48.868;9.080;2023-05-10T06:41:24;97603.09;;;12.79;87.07
77574;BME280;66710;48.868;9.080;2023-05-10T06:43:49;97606.84;;;12.83;87.01
77574;BME280;66710;48.868;9.080;2023-05-10T06:46:14;97603.44;;;12.91;84.58
77574;BME280;66710;48.868;9.080;2023-05-10T06:48:40;97602.34;;;12.92;84.93
77574;BME280;66710;48.868;9.080;2023-05-10T06:51:05;97604.00;;;13.07;85.79
77574;BME280;66710;48.868;9.080;2023-05-10T06:53:30;97608.16;;;13.04;87.54
77574;BME280;66710;48.868;9.080;2023-05-10T06:55:56;97606.41;;;12.95;86.44
77574;BME280;66710;48.868;9.080;2023-05-10T06:58:21;97606.66;;;13.12;86.72
77574;BME280;66710;48.868;9.080;2023-05-10T07:00:46;97611.69;;;13.05;86.47
77574;BME280;66710;48.868;9.080;2023-05-10T07:03:12;97613.78;;;13.13;86.08
77574;BME280;66710;48.868;9.080;2023-05-10T07:05:37;97609.75;;;13.24;85.45
77574;BME280;66710;48.868;9.080;2023-05-10T07:08:03;97616.69;;;13.36;85.45
77574;BME280;66710;48.868;9.080;2023-05-10T07:10:28;97613.06;;;13.40;85.91
77574;BME280;66710;48.868;9.080;2023-05-10T07:12:54;97620.50;;;13.54;85.29
77574;BME280;66710;48.868;9.080;2023-05-10T07:15:20;97619.75;;;13.48;84.23
77574;BME280;66710;48.868;9.080;2023-05-10T07:17:45;97623.22;;;13.54;83.45
77574;BME280;66710;48.868;9.080;2023-05-10T07:20:11;97619.25;;;13.46;83.81
77574;BME280;66710;48.868;9.080;2023-05-10T07:22:37;97621.69;;;13.48;82.31
77574;BME280;66710;48.868;9.080;2023-05-10T07:25:02;97621.19;;;13.45;81.42
77574;BME280;66710;48.868;9.080;2023-05-10T07:27:27;97628.06;;;13.43;79.86
77574;BME280;66710;48.868;9.080;2023-05-10T07:29:53;97624.31;;;13.53;79.96
77574;BME280;66710;48.868;9.080;2023-05-10T07:32:20;97626.44;;;13.42;79.17
77574;BME280;66710;48.868;9.080;2023-05-10T07:34:45;97634.69;;;13.56;79.49
77574;BME280;66710;48.868;9.080;2023-05-10T07:37:10;97626.19;;;13.57;79.49
77574;BME280;66710;48.868;9.080;2023-05-10T07:39:36;97640.84;;;13.48;79.04
77574;BME280;66710;48.868;9.080;2023-05-10T07:42:02;97631.31;;;13.45;78.87
77574;BME280;66710;48.868;9.080;2023-05-10T07:44:28;97633.56;;;13.57;78.66
77574;BME280;66710;48.868;9.080;2023-05-10T07:46:53;97646.84;;;13.63;78.56
77574;BME280;66710;48.868;9.080;2023-05-10T07:49:19;97640.16;;;13.56;78.13
77574;BME280;66710;48.868;9.080;2023-05-10T07:51:45;97640.88;;;13.61;77.42
77574;BME280;66710;48.868;9.080;2023-05-10T07:54:10;97642.50;;;13.76;77.46
77574;BME280;66710;48.868;9.080;2023-05-10T07:56:35;97647.06;;;13.67;76.18
77574;BME280;66710;48.868;9.080;2023-05-10T07:59:03;97650.94;;;13.94;77.90
77574;BME280;66710;48.868;9.080;2023-05-10T08:01:33;97650.44;;;13.92;78.19
77574;BME280;66710;48.868;9.080;2023-05-10T08:03:59;97648.13;;;14.13;78.05
77574;BME280;66710;48.868;9.080;2023-05-10T08:06:25;97649.13;;;13.89;76.14
77574;BME280;66710;48.868;9.080;2023-05-10T08:08:52;97647.47;;;13.74;76.81
77574;BME280;66710;48.868;9.080;2023-05-10T08:11:20;97647.69;;;13.78;76.31
77574;BME280;66710;48.868;9.080;2023-05-10T08:13:47;97646.94;;;13.58;75.18
77574;BME280;66710;48.868;9.080;2023-05-10T08:16:12;97648.16;;;13.52;74.58
77574;BME280;66710;48.868;9.080;2023-05-10T08:18:39;97651.53;;;13.63;73.87
77574;BME280;66710;48.868;9.080;2023-05-10T08:21:04;97652.13;;;13.60;74.44
77574;BME280;66710;48.868;9.080;2023-05-10T08:23:30;97645.72;;;13.51;73.00
77574;BME280;66710;48.868;9.080;2023-05-10T08:25:55;97649.19;;;13.70;74.09
77574;BME280;66710;48.868;9.080;2023-05-10T08:28:21;97663.41;;;13.72;74.87
77574;BME280;66710;48.868;9.080;2023-05-10T08:30:46;97662.50;;;13.77;74.55
77574;BME280;66710;48.868;9.080;2023-05-10T08:33:11;97664.72;;;13.75;73.21
77574;BME280;66710;48.868;9.080;2023-05-10T08:35:37;97666.03;;;13.77;73.73
77574;BME280;66710;48.868;9.080;2023-05-10T08:38:02;97670.72;;;13.77;72.57
77574;BME280;66710;48.868;9.080;2023-05-10T08:40:27;97663.13;;;13.88;72.28
77574;BME280;66710;48.868;9.080;2023-05-10T08:43:05;97662.13;;;14.11;72.30
77574;BME280;66710;48.868;9.080;2023-05-10T08:45:33;97665.97;;;14.24;71.48
77574;BME280;66710;48.868;9.080;2023-05-10T08:48:04;97672.88;;;14.21;71.63
77574;BME280;66710;48.868;9.080;2023-05-10T08:50:31;97666.50;;;14.26;70.57
77574;BME280;66710;48.868;9.080;2023-05-10T08:52:59;97673.06;;;14.25;70.98
77574;BME280;66710;48.868;9.080;2023-05-10T08:55:25;97663.28;;;14.88;69.80
77574;BME280;66710;48.868;9.080;2023-05-10T08:57:50;97657.06;;;14.96;69.69
77574;BME280;66710;48.868;9.080;2023-05-10T09:00:17;97671.44;;;14.66;68.72
77574;BME280;66710;48.868;9.080;2023-05-10T09:02:43;97670.41;;;14.75;69.17
77574;BME280;66710;48.868;9.080;2023-05-10T09:05:09;97669.75;;;14.92;69.26
77574;BME280;66710;48.868;9.080;2023-05-10T09:07:35;97686.97;;;14.84;69.41
77574;BME280;66710;48.868;9.080;2023-05-10T09:10:02;97685.72;;;14.90;69.06
77574;BME280;66710;48.868;9.080;2023-05-10T09:12:28;97678.94;;;14.74;68.86
77574;BME280;66710;48.868;9.080;2023-05-10T09:14:54;97681.06;;;14.77;67.83
77574;BME280;66710;48.868;9.080;2023-05-10T09:17:22;97691.66;;;14.56;69.33
77574;BME280;66710;48.868;9.080;2023-05-10T09:19:48;97695.63;;;14.64;69.58
77574;BME280;66710;48.868;9.080;2023-05-10T09:22:13;97693.97;;;14.49;69.90
77574;BME280;66710;48.868;9.080;2023-05-10T09:24:39;97686.03;;;14.75;69.58
77574;BME280;66710;48.868;9.080;2023-05-10T09:27:10;97698.41;;;15.00;69.41
77574;BME280;66710;48.868;9.080;2023-05-10T09:29:40;97680.75;;;15.15;68.80
77574;BME280;66710;48.868;9.080;2023-05-10T09:32:05;97689.47;;;14.81;69.24
77574;BME280;66710;48.868;9.080;2023-05-10T09:34:32;97693.78;;;15.09;69.72
77574;BME280;66710;48.868;9.080;2023-05-10T09:37:01;97701.00;;;14.69;70.33
77574;BME280;66710;48.868;9.080;2023-05-10T09:39:37;97702.81;;;14.46;71.76
77574;BME280;66710;48.868;9.080;2023-05-10T09:42:05;97700.19;;;14.40;71.98
77574;BME280;66710;48.868;9.080;2023-05-10T09:44:32;97701.78;;;14.55;71.71
77574;BME280;66710;48.868;9.080;2023-05-10T09:46:58;97693.50;;;14.19;71.00
77574;BME280;66710;48.868;9.080;2023-05-10T09:49:24;97705.06;;;14.30;71.79
77574;BME280;66710;48.868;9.080;2023-05-10T09:52:06;97704.03;;;14.26;71.65
77574;BME280;66710;48.868;9.080;2023-05-10T09:54:33;97717.22;;;14.23;71.97
77574;BME280;66710;48.868;9.080;2023-05-10T09:56:59;97710.72;;;14.19;71.56
77574;BME280;66710;48.868;9.080;2023-05-10T09:59:26;97712.84;;;14.09;71.98
77574;BME280;66710;48.868;9.080;2023-05-10T10:01:56;97711.13;;;14.13;71.76
77574;BME280;66710;48.868;9.080;2023-05-10T10:04:22;97707.25;;;14.41;71.94
77574;BME280;66710;48.868;9.080;2023-05-10T10:06:59;97711.56;;;14.62;71.25
77574;BME280;66710;48.868;9.080;2023-05-10T10:09:25;97716.31;;;14.42;71.08
77574;BME280;66710;48.868;9.080;2023-05-10T10:11:50;97719.25;;;14.73;70.59
77574;BME280;66710;48.868;9.080;2023-05-10T10:14:18;97714.72;;;14.69;69.21
77574;BME280;66710;48.868;9.080;2023-05-10T10:16:43;97721.19;;;14.59;68.88
77574;BME280;66710;48.868;9.080;2023-05-10T10:19:09;97712.16;;;14.72;68.80
77574;BME280;66710;48.868;9.080;2023-05-10T10:21:35;97712.13;;;15.00;69.70
77574;BME280;66710;48.868;9.080;2023-05-10T10:24:01;97712.19;;;15.09;67.16
77574;BME280;66710;48.868;9.080;2023-05-10T10:26:26;97700.41;;;15.31;66.88
77574;BME280;66710;48.868;9.080;2023-05-10T10:29:03;97710.97;;;15.01;67.90
77574;BME280;66710;48.868;9.080;2023-05-10T10:31:41;97711.94;;;14.41;68.12
77574;BME280;66710;48.868;9.080;2023-05-10T10:34:10;97709.72;;;14.43;68.72
77574;BME280;66710;48.868;9.080;2023-05-10T10:36:43;97715.41;;;14.60;68.35
77574;BME280;66710;48.868;9.080;2023-05-10T10:39:11;97713.97;;;14.49;70.56
77574;BME280;66710;48.868;9.080;2023-05-10T10:52:33;97715.59;;;14.50;66.95
77574;BME280;66710;48.868;9.080;2023-05-10T11:02:43;97713.22;;;15.35;63.40
77574;BME280;66710;48.868;9.080;2023-05-10T11:10:35;97705.25;;;15.48;64.46
77574;BME280;66710;48.868;9.080;2023-05-10T11:13:05;97699.53;;;15.67;63.10
77574;BME280;66710;48.868;9.080;2023-05-10T11:15:35;97714.03;;;15.36;61.85
77574;BME280;66710;48.868;9.080;2023-05-10T11:18:20;97713.06;;;16.08;58.39
77574;BME280;66710;48.868;9.080;2023-05-10T11:21:00;97714.38;;;16.20;57.25
77574;BME280;66710;48.868;9.080;2023-05-10T11:23:33;97710.03;;;16.67;57.02
77574;BME280;66710;48.868;9.080;2023-05-10T11:26:13;97712.28;;;15.85;58.57
77574;BME280;66710;48.868;9.080;2023-05-10T11:28:42;97713.63;;;16.28;58.40
77574;BME280;66710;48.868;9.080;2023-05-10T11:31:08;97706.13;;;16.60;56.82
77574;BME280;66710;48.868;9.080;2023-05-10T11:33:43;97715.97;;;16.43;56.41
77574;BME280;66710;48.868;9.080;2023-05-10T11:36:14;97708.63;;;15.99;56.73
77574;BME280;66710;48.868;9.080;2023-05-10T11:38:40;97721.00;;;15.65;57.74
77574;BME280;66710;48.868;9.080;2023-05-10T11:41:11;97729.88;;;15.39;58.74
77574;BME280;66710;48.868;9.080;2023-05-10T11:43:38;97722.72;;;15.75;58.51
77574;BME280;66710;48.868;9.080;2023-05-10T11:46:05;97726.50;;;15.42;60.38
77574;BME280;66710;48.868;9.080;2023-05-10T11:48:31;97721.88;;;15.29;60.43
77574;BME280;66710;48.868;9.080;2023-05-10T11:50:57;97711.53;;;15.71;61.21
77574;BME280;66710;48.868;9.080;2023-05-10T11:53:25;97729.47;;;15.09;61.48
77574;BME280;66710;48.868;9.080;2023-05-10T11:55:51;97731.34;;;14.72;60.93
77574;BME280;66710;48.868;9.080;2023-05-10T11:58:18;97726.31;;;15.16;61.37
77574;BME280;66710;48.868;9.080;2023-05-10T12:00:44;97722.56;;;15.34;61.63
77574;BME280;66710;48.868;9.080;2023-05-10T12:03:10;97732.69;;;15.48;61.14
77574;BME280;66710;48.868;9.080;2023-05-10T12:05:36;97725.44;;;15.29;60.96
77574;BME280;66710;48.868;9.080;2023-05-10T12:08:14;97731.16;;;15.19;61.11
77574;BME280;66710;48.868;9.080;2023-05-10T12:10:40;97741.34;;;15.41;60.26
77574;BME280;66710;48.868;9.080;2023-05-10T12:13:11;97733.28;;;15.22;59.31
77574;BME280;66710;48.868;9.080;2023-05-10T12:15:37;97740.53;;;15.18;57.25
77574;BME280;66710;48.868;9.080;2023-05-10T12:18:02;97742.16;;;15.42;57.46
77574;BME280;66710;48.868;9.080;2023-05-10T12:20:28;97746.44;;;15.11;56.44
77574;BME280;66710;48.868;9.080;2023-05-10T12:22:55;97744.03;;;15.32;56.36
77574;BME280;66710;48.868;9.080;2023-05-10T12:25:23;97752.38;;;15.27;58.29
77574;BME280;66710;48.868;9.080;2023-05-10T12:27:51;97760.63;;;15.13;57.73
77574;BME280;66710;48.868;9.080;2023-05-10T12:32:46;97761.22;;;15.24;58.30
77574;BME280;66710;48.868;9.080;2023-05-10T12:35:12;97741.47;;;15.36;56.97
77574;BME280;66710;48.868;9.080;2023-05-10T12:37:37;97751.78;;;15.30;57.79
77574;BME280;66710;48.868;9.080;2023-05-10T12:40:08;97759.31;;;15.25;58.54
77574;BME280;66710;48.868;9.080;2023-05-10T12:42:35;97765.88;;;15.38;58.52
77574;BME280;66710;48.868;9.080;2023-05-10T12:45:04;97761.81;;;14.98;60.70
77574;BME280;66710;48.868;9.080;2023-05-10T12:47:31;97755.03;;;15.55;60.33
77574;BME280;66710;48.868;9.080;2023-05-10T12:49:57;97756.22;;;15.26;60.88
77574;BME280;66710;48.868;9.080;2023-05-10T12:52:22;97758.94;;;15.04;60.39
77574;BME280;66710;48.868;9.080;2023-05-10T12:54:48;97755.28;;;15.67;59.86
77574;BME280;66710;48.868;9.080;2023-05-10T12:57:14;97748.72;;;15.54;60.33
77574;BME280;66710;48.868;9.080;2023-05-10T12:59:39;97753.91;;;15.56;60.10
77574;BME280;66710;48.868;9.080;2023-05-10T13:02:06;97754.44;;;15.81;60.00
77574;BME280;66710;48.868;9.080;2023-05-10T13:04:31;97752.31;;;15.78;60.14
77574;BME280;66710;48.868;9.080;2023-05-10T13:06:57;97744.63;;;15.66;60.88
77574;BME280;66710;48.868;9.080;2023-05-10T13:09:24;97747.84;;;16.13;58.38
77574;BME280;66710;48.868;9.080;2023-05-10T13:11:50;97749.06;;;15.76;59.34
77574;BME280;66710;48.868;9.080;2023-05-10T13:14:16;97744.41;;;16.07;58.85
77574;BME280;66710;48.868;9.080;2023-05-10T13:16:41;97749.91;;;16.07;57.69
77574;BME280;66710;48.868;9.080;2023-05-10T13:19:06;97740.00;;;16.29;58.28
77574;BME280;66710;48.868;9.080;2023-05-10T13:21:32;97739.41;;;15.78;59.34
77574;BME280;66710;48.868;9.080;2023-05-10T13:23:57;97746.97;;;15.59;58.87
77574;BME280;66710;48.868;9.080;2023-05-10T13:26:23;97750.59;;;15.45;59.27
77574;BME280;66710;48.868;9.080;2023-05-10T13:28:48;97743.56;;;15.53;59.21
77574;BME280;66710;48.868;9.080;2023-05-10T13:31:15;97748.34;;;15.47;59.66
77574;BME280;66710;48.868;9.080;2023-05-10T13:33:41;97750.72;;;15.63;59.83
77574;BME280;66710;48.868;9.080;2023-05-10T13:36:06;97746.31;;;15.76;59.03
77574;BME280;66710;48.868;9.080;2023-05-10T13:38:31;97734.31;;;15.71;58.20
77574;BME280;66710;48.868;9.080;2023-05-10T13:40:57;97737.94;;;15.81;59.08
77574;BME280;66710;48.868;9.080;2023-05-10T13:43:22;97738.63;;;15.64;59.41
77574;BME280;66710;48.868;9.080;2023-05-10T13:45:47;97744.47;;;15.48;58.50